sensor_id;sensor_type;location;lat;lon;timestamp;P1;durP1;ratioP1;P2;durP2;ratioP2
23270;SDS011;11804;51.118;17.058;2022-12-11T00:00:28;83.27;;;38.33;;
23270;SDS011;11804;51.118;17.058;2022-12-11T00:02:56;81.57;;;37.70;;
23270;SDS011;11804;51.118;17.058;2022-12-11T00:05:23;84.57;;;39.47;;
23270;SDS011;11804;51.118;17.058;2022-12-11T00:07:51;86.53;;;38.13;;
23270;SDS011;11804;51.118;17.058;2022-12-11T00:10:18;87.07;;;39.60;;
23270;SDS011;11804;51.118;17.058;2022-12-11T00:12:46;82.00;;;38.93;;
23270;SDS011;11804;51.118;17.058;2022-12-11T00:15:14;83.57;;;37.07;;
23270;SDS011;11804;51.118;17.058;2022-12-11T00:17:41;85.77;;;38.90;;
23270;SDS011;11804;51.118;17.058;2022-12-11T00:20:09;83.07;;;38.47;;
23270;SDS011;11804;51.118;17.058;2022-12-11T00:22:37;84.93;;;38.60;;
23270;SDS011;11804;51.118;17.058;2022-12-11T00:25:04;95.10;;;39.20;;
23270;SDS011;11804;51.118;17.058;2022-12-11T00:27:32;89.60;;;38.90;;
23270;SDS011;11804;51.118;17.058;2022-12-11T00:30:00;84.67;;;39.10;;
23270;SDS011;11804;51.118;17.058;2022-12-11T00:32:28;85.83;;;38.87;;
23270;SDS011;11804;51.118;17.058;2022-12-11T00:34:56;82.67;;;38.37;;
23270;SDS011;11804;51.118;17.058;2022-12-11T00:37:24;88.70;;;39.23;;
23270;SDS011;11804;51.118;17.058;2022-12-11T00:39:52;81.80;;;38.70;;
23270;SDS011;11804;51.118;17.058;2022-12-11T00:42:19;91.00;;;39.27;;
23270;SDS011;11804;51.118;17.058;2022-12-11T00:44:47;81.93;;;37.87;;
23270;SDS011;11804;51.118;17.058;2022-12-11T00:47:15;87.43;;;39.53;;
23270;SDS011;11804;51.118;17.058;2022-12-11T00:49:43;80.47;;;39.30;;
23270;SDS011;11804;51.118;17.058;2022-12-11T00:52:10;84.03;;;39.70;;
23270;SDS011;11804;51.118;17.058;2022-12-11T00:54:38;80.50;;;39.30;;
23270;SDS011;11804;51.118;17.058;2022-12-11T00:57:05;82.33;;;38.63;;
23270;SDS011;11804;51.118;17.058;2022-12-11T00:59:33;80.20;;;36.63;;
23270;SDS011;11804;51.118;17.058;2022-12-11T01:02:00;80.80;;;37.17;;
23270;SDS011;11804;51.118;17.058;2022-12-11T01:04:28;86.87;;;38.80;;
23270;SDS011;11804;51.118;17.058;2022-12-11T01:06:56;78.27;;;37.30;;
23270;SDS011;11804;51.118;17.058;2022-12-11T01:09:23;78.73;;;37.10;;
23270;SDS011;11804;51.118;17.058;2022-12-11T01:12:09;75.60;;;37.03;;
23270;SDS011;11804;51.118;17.058;2022-12-11T01:14:36;75.70;;;37.23;;
23270;SDS011;11804;51.118;17.058;2022-12-11T01:17:04;83.20;;;38.47;;
23270;SDS011;11804;51.118;17.058;2022-12-11T01:19:31;80.20;;;38.00;;
23270;SDS011;11804;51.118;17.058;2022-12-11T01:22:00;80.37;;;38.63;;
23270;SDS011;11804;51.118;17.058;2022-12-11T01:24:28;71.50;;;36.70;;
23270;SDS011;11804;51.118;17.058;2022-12-11T01:26:55;77.07;;;37.43;;
23270;SDS011;11804;51.118;17.058;2022-12-11T01:29:23;76.40;;;37.40;;
23270;SDS011;11804;51.118;17.058;2022-12-11T01:31:50;78.83;;;37.47;;
23270;SDS011;11804;51.118;17.058;2022-12-11T01:34:18;80.33;;;36.60;;
23270;SDS011;11804;51.118;17.058;2022-12-11T01:36:45;77.67;;;37.33;;
23270;SDS011;11804;51.118;17.058;2022-12-11T01:39:13;73.97;;;37.27;;
23270;SDS011;11804;51.118;17.058;2022-12-11T01:41:40;77.97;;;37.07;;
23270;SDS011;11804;51.118;17.058;2022-12-11T01:46:44;75.47;;;37.10;;
23270;SDS011;11804;51.118;17.058;2022-12-11T01:49:13;77.03;;;37.53;;
23270;SDS011;11804;51.118;17.058;2022-12-11T01:51:48;78.50;;;36.13;;
23270;SDS011;11804;51.118;17.058;2022-12-11T01:54:13;80.60;;;37.50;;
23270;SDS011;11804;51.118;17.058;2022-12-11T01:56:43;75.93;;;36.70;;
23270;SDS011;11804;51.118;17.058;2022-12-11T01:59:13;78.87;;;35.13;;
23270;SDS011;11804;51.118;17.058;2022-12-11T02:01:44;78.33;;;36.20;;
23270;SDS011;11804;51.118;17.058;2022-12-11T02:04:17;75.17;;;35.73;;
23270;SDS011;11804;51.118;17.058;2022-12-11T02:06:47;75.87;;;36.53;;
23270;SDS011;11804;51.118;17.058;2022-12-11T02:09:22;76.83;;;36.23;;
23270;SDS011;11804;51.118;17.058;2022-12-11T02:12:00;77.47;;;36.70;;
23270;SDS011;11804;51.118;17.058;2022-12-11T02:14:42;74.83;;;35.53;;
23270;SDS011;11804;51.118;17.058;2022-12-11T02:17:25;74.57;;;34.90;;
23270;SDS011;11804;51.118;17.058;2022-12-11T02:19:58;73.50;;;35.00;;
23270;SDS011;11804;51.118;17.058;2022-12-11T02:22:47;76.00;;;35.47;;
23270;SDS011;11804;51.118;17.058;2022-12-11T02:25:17;73.30;;;34.37;;
23270;SDS011;11804;51.118;17.058;2022-12-11T02:28:12;77.40;;;36.13;;
23270;SDS011;11804;51.118;17.058;2022-12-11T02:30:46;77.53;;;36.30;;
23270;SDS011;11804;51.118;17.058;2022-12-11T02:33:20;72.73;;;33.70;;
23270;SDS011;11804;51.118;17.058;2022-12-11T02:35:49;76.23;;;33.87;;
23270;SDS011;11804;51.118;17.058;2022-12-11T02:38:21;70.83;;;34.37;;
23270;SDS011;11804;51.118;17.058;2022-12-11T02:40:50;68.23;;;35.00;;
23270;SDS011;11804;51.118;17.058;2022-12-11T02:43:20;70.57;;;34.70;;
23270;SDS011;11804;51.118;17.058;2022-12-11T02:45:50;67.70;;;33.17;;
23270;SDS011;11804;51.118;17.058;2022-12-11T02:48:19;69.27;;;32.37;;
23270;SDS011;11804;51.118;17.058;2022-12-11T02:50:49;66.97;;;32.80;;
23270;SDS011;11804;51.118;17.058;2022-12-11T02:53:20;68.50;;;33.67;;
23270;SDS011;11804;51.118;17.058;2022-12-11T02:55:53;67.43;;;32.83;;
23270;SDS011;11804;51.118;17.058;2022-12-11T02:58:29;66.77;;;31.70;;
23270;SDS011;11804;51.118;17.058;2022-12-11T03:00:58;65.93;;;32.50;;
23270;SDS011;11804;51.118;17.058;2022-12-11T03:03:27;64.50;;;31.37;;
23270;SDS011;11804;51.118;17.058;2022-12-11T03:05:55;66.90;;;33.67;;
23270;SDS011;11804;51.118;17.058;2022-12-11T03:08:23;69.57;;;33.10;;
23270;SDS011;11804;51.118;17.058;2022-12-11T03:10:50;66.20;;;31.93;;
23270;SDS011;11804;51.118;17.058;2022-12-11T03:13:20;61.83;;;32.03;;
23270;SDS011;11804;51.118;17.058;2022-12-11T03:18:44;69.90;;;32.90;;
23270;SDS011;11804;51.118;17.058;2022-12-11T03:21:21;68.93;;;32.93;;
23270;SDS011;11804;51.118;17.058;2022-12-11T03:23:50;70.23;;;32.37;;
23270;SDS011;11804;51.118;17.058;2022-12-11T03:26:24;68.40;;;33.43;;
23270;SDS011;11804;51.118;17.058;2022-12-11T03:28:58;67.07;;;32.10;;
23270;SDS011;11804;51.118;17.058;2022-12-11T03:31:34;62.23;;;31.43;;
23270;SDS011;11804;51.118;17.058;2022-12-11T03:34:18;61.37;;;30.93;;
23270;SDS011;11804;51.118;17.058;2022-12-11T03:36:47;65.77;;;31.13;;
23270;SDS011;11804;51.118;17.058;2022-12-11T03:39:28;68.27;;;32.30;;
23270;SDS011;11804;51.118;17.058;2022-12-11T03:41:57;64.30;;;32.73;;
23270;SDS011;11804;51.118;17.058;2022-12-11T03:44:27;65.97;;;32.60;;
23270;SDS011;11804;51.118;17.058;2022-12-11T03:46:57;67.20;;;32.57;;
23270;SDS011;11804;51.118;17.058;2022-12-11T03:49:28;63.63;;;31.53;;
23270;SDS011;11804;51.118;17.058;2022-12-11T03:51:58;66.90;;;31.90;;
23270;SDS011;11804;51.118;17.058;2022-12-11T03:54:27;63.70;;;30.97;;
23270;SDS011;11804;51.118;17.058;2022-12-11T03:56:56;64.80;;;31.07;;
23270;SDS011;11804;51.118;17.058;2022-12-11T03:59:27;63.70;;;31.73;;
23270;SDS011;11804;51.118;17.058;2022-12-11T04:01:54;68.33;;;32.47;;
23270;SDS011;11804;51.118;17.058;2022-12-11T04:04:22;64.23;;;32.90;;
23270;SDS011;11804;51.118;17.058;2022-12-11T04:06:50;66.37;;;31.93;;
23270;SDS011;11804;51.118;17.058;2022-12-11T04:09:17;68.13;;;33.57;;
23270;SDS011;11804;51.118;17.058;2022-12-11T04:11:45;98.83;;;49.73;;
23270;SDS011;11804;51.118;17.058;2022-12-11T04:14:14;82.67;;;40.30;;
23270;SDS011;11804;51.118;17.058;2022-12-11T04:16:59;70.50;;;33.60;;
23270;SDS011;11804;51.118;17.058;2022-12-11T04:19:27;67.07;;;33.50;;
23270;SDS011;11804;51.118;17.058;2022-12-11T04:22:13;73.77;;;33.43;;
23270;SDS011;11804;51.118;17.058;2022-12-11T04:25:03;68.03;;;34.63;;
23270;SDS011;11804;51.118;17.058;2022-12-11T04:27:33;71.93;;;33.63;;
23270;SDS011;11804;51.118;17.058;2022-12-11T04:30:17;75.47;;;33.17;;
23270;SDS011;11804;51.118;17.058;2022-12-11T04:32:46;68.67;;;33.70;;
23270;SDS011;11804;51.118;17.058;2022-12-11T04:35:14;69.40;;;33.57;;
23270;SDS011;11804;51.118;17.058;2022-12-11T04:37:42;73.67;;;33.63;;
23270;SDS011;11804;51.118;17.058;2022-12-11T04:40:12;67.63;;;33.10;;
23270;SDS011;11804;51.118;17.058;2022-12-11T04:42:42;68.50;;;33.53;;
23270;SDS011;11804;51.118;17.058;2022-12-11T04:45:10;67.90;;;34.63;;
23270;SDS011;11804;51.118;17.058;2022-12-11T04:47:38;62.50;;;32.10;;
23270;SDS011;11804;51.118;17.058;2022-12-11T04:50:10;69.97;;;34.13;;
23270;SDS011;11804;51.118;17.058;2022-12-11T04:52:37;62.17;;;32.70;;
23270;SDS011;11804;51.118;17.058;2022-12-11T04:55:06;64.70;;;32.77;;
23270;SDS011;11804;51.118;17.058;2022-12-11T04:57:34;64.47;;;32.70;;
23270;SDS011;11804;51.118;17.058;2022-12-11T05:00:03;62.77;;;32.47;;
23270;SDS011;11804;51.118;17.058;2022-12-11T05:02:35;61.37;;;31.43;;
23270;SDS011;11804;51.118;17.058;2022-12-11T05:05:04;60.30;;;30.97;;
23270;SDS011;11804;51.118;17.058;2022-12-11T05:07:34;62.63;;;31.53;;
23270;SDS011;11804;51.118;17.058;2022-12-11T05:10:03;61.43;;;31.70;;
23270;SDS011;11804;51.118;17.058;2022-12-11T05:12:31;59.10;;;31.67;;
23270;SDS011;11804;51.118;17.058;2022-12-11T05:14:59;60.50;;;31.83;;
23270;SDS011;11804;51.118;17.058;2022-12-11T05:17:27;57.50;;;30.60;;
23270;SDS011;11804;51.118;17.058;2022-12-11T05:19:54;57.83;;;30.50;;
23270;SDS011;11804;51.118;17.058;2022-12-11T05:22:22;58.00;;;30.13;;
23270;SDS011;11804;51.118;17.058;2022-12-11T05:24:49;58.00;;;30.43;;
23270;SDS011;11804;51.118;17.058;2022-12-11T05:27:17;54.80;;;29.57;;
23270;SDS011;11804;51.118;17.058;2022-12-11T05:29:45;56.83;;;29.80;;
23270;SDS011;11804;51.118;17.058;2022-12-11T05:32:13;55.47;;;29.57;;
23270;SDS011;11804;51.118;17.058;2022-12-11T05:34:41;55.77;;;29.50;;
23270;SDS011;11804;51.118;17.058;2022-12-11T05:37:08;58.33;;;29.83;;
23270;SDS011;11804;51.118;17.058;2022-12-11T05:39:36;57.27;;;28.53;;
23270;SDS011;11804;51.118;17.058;2022-12-11T05:42:04;50.43;;;27.40;;
23270;SDS011;11804;51.118;17.058;2022-12-11T05:44:32;50.50;;;27.33;;
23270;SDS011;11804;51.118;17.058;2022-12-11T05:46:59;51.73;;;27.70;;
23270;SDS011;11804;51.118;17.058;2022-12-11T05:49:27;49.77;;;27.20;;
23270;SDS011;11804;51.118;17.058;2022-12-11T05:51:55;53.37;;;27.40;;
23270;SDS011;11804;51.118;17.058;2022-12-11T05:54:22;50.83;;;26.37;;
23270;SDS011;11804;51.118;17.058;2022-12-11T05:56:50;53.17;;;27.90;;
23270;SDS011;11804;51.118;17.058;2022-12-11T05:59:17;49.43;;;26.90;;
23270;SDS011;11804;51.118;17.058;2022-12-11T06:01:45;49.00;;;26.37;;
23270;SDS011;11804;51.118;17.058;2022-12-11T06:04:13;52.37;;;26.93;;
23270;SDS011;11804;51.118;17.058;2022-12-11T06:06:40;48.73;;;25.53;;
23270;SDS011;11804;51.118;17.058;2022-12-11T06:09:11;50.20;;;25.30;;
23270;SDS011;11804;51.118;17.058;2022-12-11T06:11:40;47.70;;;25.63;;
23270;SDS011;11804;51.118;17.058;2022-12-11T06:14:08;48.57;;;25.97;;
23270;SDS011;11804;51.118;17.058;2022-12-11T06:16:36;47.63;;;24.20;;
23270;SDS011;11804;51.118;17.058;2022-12-11T06:19:06;46.67;;;23.67;;
23270;SDS011;11804;51.118;17.058;2022-12-11T06:21:35;46.53;;;25.10;;
23270;SDS011;11804;51.118;17.058;2022-12-11T06:24:04;44.17;;;23.67;;
23270;SDS011;11804;51.118;17.058;2022-12-11T06:26:32;46.73;;;24.43;;
23270;SDS011;11804;51.118;17.058;2022-12-11T06:29:00;49.30;;;25.60;;
23270;SDS011;11804;51.118;17.058;2022-12-11T06:31:29;45.97;;;24.20;;
23270;SDS011;11804;51.118;17.058;2022-12-11T06:33:57;43.17;;;24.40;;
23270;SDS011;11804;51.118;17.058;2022-12-11T06:36:25;43.07;;;23.60;;
23270;SDS011;11804;51.118;17.058;2022-12-11T06:38:53;43.07;;;24.10;;
23270;SDS011;11804;51.118;17.058;2022-12-11T06:41:22;41.23;;;23.10;;
23270;SDS011;11804;51.118;17.058;2022-12-11T06:43:50;46.07;;;24.47;;
23270;SDS011;11804;51.118;17.058;2022-12-11T06:46:18;44.07;;;24.13;;
23270;SDS011;11804;51.118;17.058;2022-12-11T06:48:46;45.00;;;24.30;;
23270;SDS011;11804;51.118;17.058;2022-12-11T06:51:16;42.37;;;23.67;;
23270;SDS011;11804;51.118;17.058;2022-12-11T06:53:55;41.67;;;23.87;;
23270;SDS011;11804;51.118;17.058;2022-12-11T06:56:19;44.97;;;23.97;;
23270;SDS011;11804;51.118;17.058;2022-12-11T06:58:47;45.30;;;24.50;;
23270;SDS011;11804;51.118;17.058;2022-12-11T07:01:17;46.60;;;25.83;;
23270;SDS011;11804;51.118;17.058;2022-12-11T07:03:46;46.07;;;24.23;;
23270;SDS011;11804;51.118;17.058;2022-12-11T07:06:14;48.10;;;26.33;;
23270;SDS011;11804;51.118;17.058;2022-12-11T07:08:42;43.20;;;23.73;;
23270;SDS011;11804;51.118;17.058;2022-12-11T07:11:11;49.47;;;25.50;;
23270;SDS011;11804;51.118;17.058;2022-12-11T07:13:40;45.93;;;25.17;;
23270;SDS011;11804;51.118;17.058;2022-12-11T07:16:08;43.63;;;24.13;;
23270;SDS011;11804;51.118;17.058;2022-12-11T07:18:44;45.90;;;24.97;;
23270;SDS011;11804;51.118;17.058;2022-12-11T07:21:07;42.97;;;24.73;;
23270;SDS011;11804;51.118;17.058;2022-12-11T07:23:37;52.93;;;27.73;;
23270;SDS011;11804;51.118;17.058;2022-12-11T07:26:10;43.43;;;23.63;;
23270;SDS011;11804;51.118;17.058;2022-12-11T07:28:35;43.73;;;24.53;;
23270;SDS011;11804;51.118;17.058;2022-12-11T07:31:10;43.53;;;24.00;;
23270;SDS011;11804;51.118;17.058;2022-12-11T07:33:40;44.60;;;24.27;;
23270;SDS011;11804;51.118;17.058;2022-12-11T07:36:08;49.17;;;25.83;;
23270;SDS011;11804;51.118;17.058;2022-12-11T07:38:37;47.93;;;28.20;;
23270;SDS011;11804;51.118;17.058;2022-12-11T07:41:06;68.50;;;34.47;;
23270;SDS011;11804;51.118;17.058;2022-12-11T07:43:36;134.70;;;57.83;;
23270;SDS011;11804;51.118;17.058;2022-12-11T07:46:04;151.00;;;59.57;;
23270;SDS011;11804;51.118;17.058;2022-12-11T07:48:36;135.90;;;54.67;;
23270;SDS011;11804;51.118;17.058;2022-12-11T07:51:08;67.27;;;34.37;;
23270;SDS011;11804;51.118;17.058;2022-12-11T07:53:37;49.17;;;28.43;;
23270;SDS011;11804;51.118;17.058;2022-12-11T07:56:05;50.43;;;28.17;;
23270;SDS011;11804;51.118;17.058;2022-12-11T07:58:33;46.83;;;25.10;;
23270;SDS011;11804;51.118;17.058;2022-12-11T08:01:02;47.17;;;25.27;;
23270;SDS011;11804;51.118;17.058;2022-12-11T08:03:31;45.10;;;25.23;;
23270;SDS011;11804;51.118;17.058;2022-12-11T08:05:58;42.80;;;22.97;;
23270;SDS011;11804;51.118;17.058;2022-12-11T08:08:26;41.30;;;23.30;;
23270;SDS011;11804;51.118;17.058;2022-12-11T08:10:53;43.63;;;24.07;;
23270;SDS011;11804;51.118;17.058;2022-12-11T08:13:21;42.27;;;22.90;;
23270;SDS011;11804;51.118;17.058;2022-12-11T08:15:49;45.80;;;22.83;;
23270;SDS011;11804;51.118;17.058;2022-12-11T08:18:16;40.87;;;20.40;;
23270;SDS011;11804;51.118;17.058;2022-12-11T08:20:44;42.03;;;21.70;;
23270;SDS011;11804;51.118;17.058;2022-12-11T08:23:11;38.30;;;20.43;;
23270;SDS011;11804;51.118;17.058;2022-12-11T08:25:39;34.17;;;19.33;;
23270;SDS011;11804;51.118;17.058;2022-12-11T08:28:06;34.63;;;18.53;;
23270;SDS011;11804;51.118;17.058;2022-12-11T08:30:34;35.70;;;19.80;;
23270;SDS011;11804;51.118;17.058;2022-12-11T08:33:03;36.90;;;21.20;;
23270;SDS011;11804;51.118;17.058;2022-12-11T08:35:31;49.90;;;25.90;;
23270;SDS011;11804;51.118;17.058;2022-12-11T08:37:59;38.63;;;20.23;;
23270;SDS011;11804;51.118;17.058;2022-12-11T08:40:26;39.77;;;21.77;;
23270;SDS011;11804;51.118;17.058;2022-12-11T08:42:54;44.13;;;23.77;;
23270;SDS011;11804;51.118;17.058;2022-12-11T08:45:21;43.03;;;22.57;;
23270;SDS011;11804;51.118;17.058;2022-12-11T08:47:49;45.20;;;24.13;;
23270;SDS011;11804;51.118;17.058;2022-12-11T08:50:19;46.17;;;25.20;;
23270;SDS011;11804;51.118;17.058;2022-12-11T08:52:46;57.50;;;29.70;;
23270;SDS011;11804;51.118;17.058;2022-12-11T08:55:14;66.97;;;32.00;;
23270;SDS011;11804;51.118;17.058;2022-12-11T08:57:41;42.67;;;24.43;;
23270;SDS011;11804;51.118;17.058;2022-12-11T09:00:11;42.23;;;23.27;;
23270;SDS011;11804;51.118;17.058;2022-12-11T09:02:40;44.20;;;25.23;;
23270;SDS011;11804;51.118;17.058;2022-12-11T09:05:07;87.80;;;40.50;;
23270;SDS011;11804;51.118;17.058;2022-12-11T09:07:36;74.90;;;36.17;;
23270;SDS011;11804;51.118;17.058;2022-12-11T09:10:04;54.10;;;27.73;;
23270;SDS011;11804;51.118;17.058;2022-12-11T09:12:33;50.97;;;27.60;;
23270;SDS011;11804;51.118;17.058;2022-12-11T09:15:01;79.53;;;41.53;;
23270;SDS011;11804;51.118;17.058;2022-12-11T09:17:29;49.03;;;28.37;;
23270;SDS011;11804;51.118;17.058;2022-12-11T09:19:57;49.80;;;28.23;;
23270;SDS011;11804;51.118;17.058;2022-12-11T09:22:25;44.30;;;24.77;;
23270;SDS011;11804;51.118;17.058;2022-12-11T09:24:53;41.77;;;23.63;;
23270;SDS011;11804;51.118;17.058;2022-12-11T09:27:20;42.03;;;23.07;;
23270;SDS011;11804;51.118;17.058;2022-12-11T09:29:48;63.13;;;29.10;;
23270;SDS011;11804;51.118;17.058;2022-12-11T09:32:16;58.27;;;27.57;;
23270;SDS011;11804;51.118;17.058;2022-12-11T09:34:43;107.03;;;44.90;;
23270;SDS011;11804;51.118;17.058;2022-12-11T09:37:13;61.40;;;30.87;;
23270;SDS011;11804;51.118;17.058;2022-12-11T09:39:40;38.47;;;21.77;;
23270;SDS011;11804;51.118;17.058;2022-12-11T09:42:13;37.43;;;20.70;;
23270;SDS011;11804;51.118;17.058;2022-12-11T09:44:57;38.30;;;21.17;;
23270;SDS011;11804;51.118;17.058;2022-12-11T09:50:05;40.07;;;21.20;;
23270;SDS011;11804;51.118;17.058;2022-12-11T09:52:39;60.53;;;30.20;;
23270;SDS011;11804;51.118;17.058;2022-12-11T09:55:55;107.90;;;43.67;;
23270;SDS011;11804;51.118;17.058;2022-12-11T09:57:53;74.27;;;32.47;;
23270;SDS011;11804;51.118;17.058;2022-12-11T10:00:31;52.10;;;25.80;;
23270;SDS011;11804;51.118;17.058;2022-12-11T10:03:21;43.30;;;23.20;;
23270;SDS011;11804;51.118;17.058;2022-12-11T10:08:32;37.53;;;20.27;;
23270;SDS011;11804;51.118;17.058;2022-12-11T10:16:45;36.10;;;20.57;;
23270;SDS011;11804;51.118;17.058;2022-12-11T10:19:19;37.53;;;21.20;;
23270;SDS011;11804;51.118;17.058;2022-12-11T10:21:48;59.37;;;28.43;;
23270;SDS011;11804;51.118;17.058;2022-12-11T10:24:27;174.27;;;60.37;;
23270;SDS011;11804;51.118;17.058;2022-12-11T10:26:57;175.20;;;63.63;;
23270;SDS011;11804;51.118;17.058;2022-12-11T10:29:27;43.93;;;23.20;;
23270;SDS011;11804;51.118;17.058;2022-12-11T10:31:55;52.90;;;27.33;;
23270;SDS011;11804;51.118;17.058;2022-12-11T10:36:57;40.97;;;19.73;;
23270;SDS011;11804;51.118;17.058;2022-12-11T10:39:24;33.57;;;18.30;;
23270;SDS011;11804;51.118;17.058;2022-12-11T10:41:52;29.87;;;17.83;;
23270;SDS011;11804;51.118;17.058;2022-12-11T10:44:22;35.83;;;20.87;;
23270;SDS011;11804;51.118;17.058;2022-12-11T10:47:02;33.13;;;18.57;;
23270;SDS011;11804;51.118;17.058;2022-12-11T10:49:34;37.23;;;19.57;;
23270;SDS011;11804;51.118;17.058;2022-12-11T10:52:10;32.17;;;17.73;;
23270;SDS011;11804;51.118;17.058;2022-12-11T10:54:41;38.83;;;18.07;;
23270;SDS011;11804;51.118;17.058;2022-12-11T10:57:12;31.37;;;16.60;;
23270;SDS011;11804;51.118;17.058;2022-12-11T10:59:47;31.13;;;17.73;;
23270;SDS011;11804;51.118;17.058;2022-12-11T11:02:18;31.27;;;16.23;;
23270;SDS011;11804;51.118;17.058;2022-12-11T11:04:51;28.27;;;16.13;;
23270;SDS011;11804;51.118;17.058;2022-12-11T11:07:22;25.47;;;15.27;;
23270;SDS011;11804;51.118;17.058;2022-12-11T11:12:40;28.80;;;15.00;;
23270;SDS011;11804;51.118;17.058;2022-12-11T11:15:13;27.40;;;15.97;;
23270;SDS011;11804;51.118;17.058;2022-12-11T11:17:44;27.37;;;16.33;;
23270;SDS011;11804;51.118;17.058;2022-12-11T11:20:14;30.63;;;17.10;;
23270;SDS011;11804;51.118;17.058;2022-12-11T11:22:45;28.53;;;15.90;;
23270;SDS011;11804;51.118;17.058;2022-12-11T11:25:19;26.03;;;16.20;;
23270;SDS011;11804;51.118;17.058;2022-12-11T11:27:54;28.87;;;16.17;;
23270;SDS011;11804;51.118;17.058;2022-12-11T11:30:30;34.00;;;16.53;;
23270;SDS011;11804;51.118;17.058;2022-12-11T11:33:04;24.87;;;14.87;;
23270;SDS011;11804;51.118;17.058;2022-12-11T11:35:52;27.83;;;15.10;;
23270;SDS011;11804;51.118;17.058;2022-12-11T11:38:22;26.33;;;15.27;;
23270;SDS011;11804;51.118;17.058;2022-12-11T11:41:11;25.53;;;14.87;;
23270;SDS011;11804;51.118;17.058;2022-12-11T11:43:47;27.20;;;15.60;;
23270;SDS011;11804;51.118;17.058;2022-12-11T11:46:23;28.33;;;16.50;;
23270;SDS011;11804;51.118;17.058;2022-12-11T11:48:57;28.93;;;17.13;;
23270;SDS011;11804;51.118;17.058;2022-12-11T11:51:52;31.23;;;17.57;;
23270;SDS011;11804;51.118;17.058;2022-12-11T11:57:10;32.33;;;18.60;;
23270;SDS011;11804;51.118;17.058;2022-12-11T11:59:46;40.40;;;19.27;;
23270;SDS011;11804;51.118;17.058;2022-12-11T12:02:16;32.80;;;19.13;;
23270;SDS011;11804;51.118;17.058;2022-12-11T12:04:46;29.10;;;17.93;;
23270;SDS011;11804;51.118;17.058;2022-12-11T12:17:49;35.87;;;19.83;;
23270;SDS011;11804;51.118;17.058;2022-12-11T12:20:21;30.47;;;17.70;;
23270;SDS011;11804;51.118;17.058;2022-12-11T12:26:08;31.20;;;17.63;;
23270;SDS011;11804;51.118;17.058;2022-12-11T12:31:40;28.63;;;16.43;;
23270;SDS011;11804;51.118;17.058;2022-12-11T12:39:52;30.00;;;15.50;;
23270;SDS011;11804;51.118;17.058;2022-12-11T12:42:21;27.20;;;16.30;;
23270;SDS011;11804;51.118;17.058;2022-12-11T12:44:55;29.17;;;16.13;;
23270;SDS011;11804;51.118;17.058;2022-12-11T12:47:29;32.47;;;17.73;;
23270;SDS011;11804;51.118;17.058;2022-12-11T12:49:59;29.60;;;16.93;;
23270;SDS011;11804;51.118;17.058;2022-12-11T12:52:36;29.10;;;17.57;;
23270;SDS011;11804;51.118;17.058;2022-12-11T12:55:14;27.90;;;17.33;;
23270;SDS011;11804;51.118;17.058;2022-12-11T12:57:58;29.83;;;18.20;;
23270;SDS011;11804;51.118;17.058;2022-12-11T13:00:32;33.03;;;18.17;;
23270;SDS011;11804;51.118;17.058;2022-12-11T13:03:23;29.97;;;16.90;;
23270;SDS011;11804;51.118;17.058;2022-12-11T13:06:04;30.43;;;18.10;;
23270;SDS011;11804;51.118;17.058;2022-12-11T13:08:38;28.33;;;16.17;;
23270;SDS011;11804;51.118;17.058;2022-12-11T13:11:07;29.03;;;16.73;;
23270;SDS011;11804;51.118;17.058;2022-12-11T13:13:40;38.73;;;22.43;;
23270;SDS011;11804;51.118;17.058;2022-12-11T13:18:46;46.40;;;25.73;;
23270;SDS011;11804;51.118;17.058;2022-12-11T13:26:48;25.43;;;16.47;;
23270;SDS011;11804;51.118;17.058;2022-12-11T13:29:33;31.17;;;17.87;;
23270;SDS011;11804;51.118;17.058;2022-12-11T13:34:39;30.63;;;16.77;;
23270;SDS011;11804;51.118;17.058;2022-12-11T13:39:53;219.33;;;79.13;;
23270;SDS011;11804;51.118;17.058;2022-12-11T13:45:14;32.83;;;19.23;;
23270;SDS011;11804;51.118;17.058;2022-12-11T13:47:46;30.10;;;18.33;;
23270;SDS011;11804;51.118;17.058;2022-12-11T13:50:19;27.53;;;16.40;;
23270;SDS011;11804;51.118;17.058;2022-12-11T13:52:58;79.00;;;37.17;;
23270;SDS011;11804;51.118;17.058;2022-12-11T13:55:28;85.17;;;41.80;;
23270;SDS011;11804;51.118;17.058;2022-12-11T13:58:00;29.07;;;17.50;;
23270;SDS011;11804;51.118;17.058;2022-12-11T14:00:29;58.63;;;25.50;;
23270;SDS011;11804;51.118;17.058;2022-12-11T14:02:58;61.47;;;30.73;;
23270;SDS011;11804;51.118;17.058;2022-12-11T14:05:28;24.17;;;15.37;;
23270;SDS011;11804;51.118;17.058;2022-12-11T14:07:57;21.63;;;12.47;;
23270;SDS011;11804;51.118;17.058;2022-12-11T14:10:28;23.20;;;12.47;;
23270;SDS011;11804;51.118;17.058;2022-12-11T14:15:34;28.97;;;15.03;;
23270;SDS011;11804;51.118;17.058;2022-12-11T14:18:04;25.30;;;15.20;;
23270;SDS011;11804;51.118;17.058;2022-12-11T14:20:33;58.77;;;30.60;;
23270;SDS011;11804;51.118;17.058;2022-12-11T14:23:35;74.40;;;33.50;;
23270;SDS011;11804;51.118;17.058;2022-12-11T14:25:50;22.23;;;13.13;;
23270;SDS011;11804;51.118;17.058;2022-12-11T14:28:22;22.13;;;12.90;;
23270;SDS011;11804;51.118;17.058;2022-12-11T14:30:53;21.07;;;12.43;;
23270;SDS011;11804;51.118;17.058;2022-12-11T14:33:32;29.30;;;14.37;;
23270;SDS011;11804;51.118;17.058;2022-12-11T14:35:57;21.80;;;11.97;;
23270;SDS011;11804;51.118;17.058;2022-12-11T14:38:27;19.27;;;11.13;;
23270;SDS011;11804;51.118;17.058;2022-12-11T14:40:58;19.27;;;11.13;;
23270;SDS011;11804;51.118;17.058;2022-12-11T14:43:40;16.90;;;10.73;;
23270;SDS011;11804;51.118;17.058;2022-12-11T14:46:05;19.97;;;11.87;;
23270;SDS011;11804;51.118;17.058;2022-12-11T14:48:42;20.00;;;11.10;;
23270;SDS011;11804;51.118;17.058;2022-12-11T14:51:09;18.47;;;11.23;;
23270;SDS011;11804;51.118;17.058;2022-12-11T14:53:39;23.13;;;11.43;;
23270;SDS011;11804;51.118;17.058;2022-12-11T14:56:12;24.10;;;12.90;;
23270;SDS011;11804;51.118;17.058;2022-12-11T14:58:40;21.70;;;12.20;;
23270;SDS011;11804;51.118;17.058;2022-12-11T15:01:25;20.27;;;12.37;;
23270;SDS011;11804;51.118;17.058;2022-12-11T15:04:02;22.47;;;13.23;;
23270;SDS011;11804;51.118;17.058;2022-12-11T15:06:32;27.27;;;14.80;;
23270;SDS011;11804;51.118;17.058;2022-12-11T15:09:20;25.30;;;14.77;;
23270;SDS011;11804;51.118;17.058;2022-12-11T15:11:57;23.97;;;14.27;;
23270;SDS011;11804;51.118;17.058;2022-12-11T15:14:27;25.57;;;14.00;;
23270;SDS011;11804;51.118;17.058;2022-12-11T15:16:55;32.10;;;15.57;;
23270;SDS011;11804;51.118;17.058;2022-12-11T15:19:27;23.67;;;13.50;;
23270;SDS011;11804;51.118;17.058;2022-12-11T15:22:03;24.90;;;13.97;;
23270;SDS011;11804;51.118;17.058;2022-12-11T15:24:37;25.67;;;14.73;;
23270;SDS011;11804;51.118;17.058;2022-12-11T15:27:14;25.30;;;15.07;;
23270;SDS011;11804;51.118;17.058;2022-12-11T15:29:52;24.40;;;14.83;;
23270;SDS011;11804;51.118;17.058;2022-12-11T15:32:19;28.63;;;15.73;;
23270;SDS011;11804;51.118;17.058;2022-12-11T15:34:51;25.90;;;13.53;;